Latest Coastal Weather Observations for Port Kembla Harbour

IDN60701

Issued at 1:11 pm EST Friday 24 May 2019 (issued every 10 minutes, with the page automatically refreshed every 10 minutes)

About coastal observations | Map of coastal stations | Coastal observations for NSW | Marine services | Other Formats
Station Details ID: 068253 Name: PORT KEMBLA NTC AWS Lat: -34.47 Lon: 150.91 Height: 0.0 m
Data from the previous 72 hours. | See also: Recent months for locations in New South Wales
Date/Time
EST
Wind Sea
Height
m
Swell Vis
km
Cloud Weather Temp
°C
Press
hPa
Rain since
9am
mm
Dir  Spd
kts
Gust
kts
Height
m
Period
s
Dir
24/01:00pm ENE 6 9 - - - - - - - 22.6 1019.3 -
24/12:30pm WSW 7 12 - - - - - - - 24.4 1019.5 -
24/12:00pm NE 3 6 - - - - - - - 23.7 1020.1 -
24/11:30am NNE 5 6 - - - - - - - 22.3 1020.9 -
24/11:00am NNE 4 5 - - - - - - - 21.9 1021.6 -
24/10:30am N 5 7 - - - - - - - 21.3 1022.0 -
24/10:00am NNW 3 5 - - - - - - - 21.4 1022.3 -
24/09:30am N 3 5 - - - - - - - 20.6 1022.3 -
24/09:00am WNW 3 6 - - - - - - - 19.1 1022.4 -
24/08:30am NW 5 7 - - - - - - - 18.4 1022.4 -
24/08:00am WSW 4 5 - - - - - - - 16.3 1022.7 -
24/07:30am WSW 3 4 - - - - - - - 15.7 1022.7 -
24/07:00am WSW 4 5 - - - - - - - 15.5 1022.6 -
24/06:30am WSW 3 4 - - - - - - - 15.8 1022.4 -
24/06:00am WSW 3 5 - - - - - - - 15.3 1022.0 -
24/05:30am WSW 3 5 - - - - - - - 15.8 1021.5 -
24/05:00am W 2 4 - - - - - - - 16.5 1021.7 -
24/04:30am NW 4 5 - - - - - - - 17.2 1021.8 -
24/04:00am W 4 5 - - - - - - - 16.8 1022.0 -
24/03:30am NW 7 9 - - - - - - - 17.9 1022.0 -
24/03:00am CALM 0 2 - - - - - - - 17.6 1022.3 -
24/02:30am NNW 5 8 - - - - - - - 18.9 1022.8 -
24/02:00am NNW 4 6 - - - - - - - 18.9 1022.8 -
24/01:30am NNW 5 8 - - - - - - - 18.8 1022.9 -
24/01:00am WNW 5 8 - - - - - - - 18.9 1023.3 -
24/12:30am NNW 4 6 - - - - - - - 18.9 1023.5 -
24/12:00am NW 6 8 - - - - - - - 18.8 1023.9 -
 
Date/Time
EST
Wind Sea
Height
m
Swell Vis
km
Cloud Weather Temp
°C
Press
hPa
Rain since
9am
mm
Dir  Spd
kts
Gust
kts
Height
m
Period
s
Dir
23/11:30pm WNW 2 3 - - - - - - - 18.3 1024.1 -
23/11:00pm W 4 5 - - - - - - - 18.8 1024.2 -
23/10:30pm W 6 7 - - - - - - - 18.4 1024.5 -
23/10:00pm W 5 7 - - - - - - - 18.4 1024.7 -
23/09:30pm WSW 4 5 - - - - - - - 17.9 1024.8 -
23/09:00pm SW 2 3 - - - - - - - 17.7 1024.8 -
23/08:30pm SW 2 3 - - - - - - - 18.1 1024.7 -
23/08:00pm WSW 3 4 - - - - - - - 18.3 1024.6 -
23/07:30pm WSW 2 3 - - - - - - - 18.7 1024.5 -
23/07:00pm WSW 4 5 - - - - - - - 18.7 1024.5 -
23/06:30pm NW 4 5 - - - - - - - 19.9 1024.4 -
23/06:00pm NNW 3 5 - - - - - - - 20.1 1024.3 -
23/05:30pm NNE 4 5 - - - - - - - 20.5 1024.2 -
23/05:00pm NNE 4 5 - - - - - - - 20.4 1024.2 -
23/04:30pm NNE 4 5 - - - - - - - 20.6 1024.1 -
23/04:00pm NE 3 5 - - - - - - - 20.5 1024.2 -
23/03:30pm NE 4 7 - - - - - - - 20.6 1024.1 -
23/03:00pm ENE 5 6 - - - - - - - 20.5 1024.2 -
23/02:30pm ENE 4 7 - - - - - - - 20.6 1024.6 -
23/02:00pm E 4 7 - - - - - - - 20.4 1024.9 -
23/01:30pm E 4 7 - - - - - - - 20.4 1025.0 -
23/01:00pm ESE 4 7 - - - - - - - 20.3 1025.4 -
23/12:30pm ESE 5 8 - - - - - - - 20.1 1025.8 -
23/12:00pm ESE 6 7 - - - - - - - 19.9 1026.2 -
23/11:30am ESE 5 6 - - - - - - - 19.9 1026.7 -
23/11:00am ESE 5 6 - - - - - - - 20.0 1027.3 -
23/10:30am SSE 2 5 - - - - - - - 20.6 1027.7 -
23/10:00am WSW 3 4 - - - - - - - 20.0 1027.7 -
23/09:30am WSW 4 6 - - - - - - - 19.4 1027.7 -
23/09:00am W 4 5 - - - - - - - 18.6 1027.8 -
23/08:30am W 3 5 - - - - - - - 17.5 1027.7 -
23/08:00am SW 3 4 - - - - - - - 16.1 1027.7 -
23/07:30am WSW 3 5 - - - - - - - 15.6 1027.6 -
23/07:00am WSW 3 4 - - - - - - - 15.5 1027.3 -
23/06:30am WSW 2 3 - - - - - - - 15.6 1027.1 -
23/06:00am WSW 4 6 - - - - - - - 15.5 1026.8 -
23/05:30am W 5 6 - - - - - - - 15.9 1026.7 -
23/05:00am W 4 5 - - - - - - - 15.7 1026.7 -
23/04:30am WSW 3 5 - - - - - - - 16.0 1026.6 -
23/04:00am WSW 3 4 - - - - - - - 16.0 1026.5 -
23/03:30am WSW 4 5 - - - - - - - 16.3 1026.7 -
23/03:00am SW 4 5 - - - - - - - 17.0 1027.0 -
23/02:30am SSW 2 3 - - - - - - - 17.0 1026.9 -
23/02:00am WSW 3 5 - - - - - - - 16.6 1026.7 -
23/01:30am WSW 3 5 - - - - - - - 17.0 1026.8 -
23/01:00am SW 5 7 - - - - - - - 17.3 1026.9 -
23/12:30am SW 4 6 - - - - - - - 17.2 1026.9 -
23/12:00am WSW 5 6 - - - - - - - 16.9 1027.2 -
 
Date/Time
EST
Wind Sea
Height
m
Swell Vis
km
Cloud Weather Temp
°C
Press
hPa
Rain since
9am
mm
Dir  Spd
kts
Gust
kts
Height
m
Period
s
Dir
22/11:30pm WSW 6 9 - - - - - - - 16.9 1027.3 -
22/11:00pm SW 5 6 - - - - - - - 17.2 1027.2 -
22/10:30pm SW 4 6 - - - - - - - 17.2 1027.4 -
22/10:00pm SW 4 5 - - - - - - - 17.6 1027.5 -
22/09:30pm SW 4 6 - - - - - - - 17.8 1027.5 -
22/09:00pm SW 4 5 - - - - - - - 17.8 1027.5 -
22/08:30pm WSW 5 7 - - - - - - - 17.9 1027.4 -
22/08:00pm SW 4 6 - - - - - - - 18.5 1027.2 -
22/07:30pm SW 5 8 - - - - - - - 18.8 1027.3 -
22/07:00pm SW 7 9 - - - - - - - 19.1 1027.2 -
22/06:30pm SW 7 11 - - - - - - - 19.4 1026.9 -
22/06:00pm SW 6 9 - - - - - - - 19.6 1026.7 -
22/05:30pm SSW 4 8 - - - - - - - 19.8 1026.6 -
22/05:00pm S 4 8 - - - - - - - 20.0 1026.3 -
22/04:30pm S 4 9 - - - - - - - 20.4 1026.2 -
22/04:00pm SSE 4 8 - - - - - - - 20.8 1026.0 -
22/03:30pm S 5 9 - - - - - - - 21.1 1025.8 -
22/03:00pm SSE 6 12 - - - - - - - 20.8 1025.7 -
22/02:30pm SSE 6 9 - - - - - - - 21.0 1025.7 -
22/02:00pm SSE 5 9 - - - - - - - 21.2 1025.7 -
22/01:30pm SSE 6 10 - - - - - - - 20.9 1025.8 -
22/01:00pm SSE 7 12 - - - - - - - 20.8 1026.1 -
22/12:30pm SSE 6 12 - - - - - - - 20.7 1026.3 -
22/12:00pm SSE 6 12 - - - - - - - 20.6 1026.7 -
22/11:30am SSE 6 10 - - - - - - - 20.8 1027.0 -
22/11:00am SSE 5 10 - - - - - - - 21.3 1027.2 -
22/10:30am S 5 9 - - - - - - - 21.0 1027.3 -
22/10:00am S 4 9 - - - - - - - 20.5 1027.3 -
22/09:30am S 4 8 - - - - - - - 20.5 1027.3 -
22/09:00am SW 7 10 - - - - - - - 19.5 1027.2 -
22/08:30am SW 4 7 - - - - - - - 18.8 1027.1 -
22/08:00am SW 3 5 - - - - - - - 18.0 1027.0 -
22/07:30am WSW 2 4 - - - - - - - 17.3 1026.7 -
22/07:00am SW 3 5 - - - - - - - 16.8 1026.5 -
22/06:30am SW 4 6 - - - - - - - 17.2 1026.1 -
22/06:00am SW 5 8 - - - - - - - 17.5 1025.8 -
22/05:30am SSW 7 9 - - - - - - - 17.6 1025.4 -
22/05:00am SW 4 6 - - - - - - - 16.9 1025.2 -
22/04:30am SSW 3 5 - - - - - - - 16.8 1024.8 -
22/04:00am W 4 5 - - - - - - - 16.6 1024.8 -
22/03:30am SW 4 5 - - - - - - - 17.4 1024.7 -
22/03:00am SW 2 5 - - - - - - - 16.9 1024.8 -
22/02:30am W 4 6 - - - - - - - 18.2 1024.5 -
22/02:00am W 5 6 - - - - - - - 18.6 1024.3 -
22/01:30am WSW 7 8 - - - - - - - 18.7 1024.5 -
22/01:00am W 6 7 - - - - - - - 18.7 1024.4 -
22/12:30am W 5 6 - - - - - - - 18.4 1024.5 -
22/12:00am WSW 4 6 - - - - - - - 19.2 1024.5 -
 
Date/Time
EST
Wind Sea
Height
m
Swell Vis
km
Cloud Weather Temp
°C
Press
hPa
Rain since
9am
mm
Dir  Spd
kts
Gust
kts
Height
m
Period
s
Dir
21/11:30pm WSW 5 7 - - - - - - - 19.6 1024.5 -
21/11:00pm WSW 5 6 - - - - - - - 19.3 1024.6 -
21/10:30pm SW 3 4 - - - - - - - 19.8 1024.4 -
21/10:00pm WSW 3 5 - - - - - - - 20.0 1024.5 -
21/09:30pm W 5 6 - - - - - - - 21.0 1024.3 -
21/09:00pm W 4 5 - - - - - - - 21.1 1024.1 -
21/08:30pm WSW 4 6 - - - - - - - 21.6 1024.1 -
21/08:00pm WSW 5 6 - - - - - - - 21.4 1024.0 -
21/07:30pm SW 4 5 - - - - - - - 22.0 1023.9 -
21/07:00pm WSW 6 8 - - - - - - - 22.6 1023.7 -
21/06:30pm W 8 10 - - - - - - - 23.4 1023.3 -
21/06:00pm W 5 6 - - - - - - - 23.0 1023.0 -
21/05:30pm W 4 5 - - - - - - - 23.6 1022.4 -
21/05:00pm W 6 8 - - - - - - - 24.7 1022.0 -
21/04:30pm W 9 12 - - - - - - - 25.0 1021.8 -
21/04:00pm WNW 5 11 - - - - - - - 25.7 1021.5 -
21/03:30pm NNE 5 8 - - - - - - - 23.2 1021.4 -
21/03:00pm NNE 5 9 - - - - - - - 22.9 1021.3 -
21/02:30pm NE 8 13 - - - - - - - 22.9 1021.1 -
21/02:00pm NNE 6 12 - - - - - - - 23.6 1021.2 -
21/01:30pm N 5 10 - - - - - - - 24.3 1021.5 -

Other formats

Comma delimited format used in spreadsheet applications
http://www.bom.gov.au/fwo/IDN60701/IDN60701.95745.axf

JavaScript Object Notation format (JSON) in row-major order
http://www.bom.gov.au/fwo/IDN60701/IDN60701.95745.json

Data quality

Most of these data are generated automatically and are frequently updated. Quality checks on data are not normally performed. It is possible for incorrect values to appear. Refer to information at About Latest Weather Observations and please check the disclaimer before using these data.